createdAt,value
2023-02-04T00:02:17.293Z,79916.81
2023-02-04T00:08:35.310Z,79949.05
2023-02-04T00:14:53.413Z,79946.02
2023-02-04T00:21:11.669Z,79972.22
2023-02-04T00:27:29.844Z,79988.34
2023-02-04T00:33:47.923Z,79989.34
2023-02-04T00:40:05.971Z,80026.63
2023-02-04T00:46:23.810Z,80045.77
2023-02-04T00:52:43.906Z,80077.00
2023-02-04T00:59:02.308Z,80096.14
2023-02-04T01:05:20.527Z,80106.22
2023-02-04T01:11:38.875Z,80141.48
2023-02-04T01:17:57.141Z,80159.61
2023-02-04T01:24:15.372Z,80164.66
2023-02-04T01:30:34.871Z,80171.70
2023-02-04T01:36:52.598Z,80200.92
2023-02-04T01:43:10.396Z,80215.03
2023-02-04T01:49:30.355Z,80214.02
2023-02-04T01:55:48.647Z,80223.09
2023-02-04T02:02:07.182Z,80223.09
2023-02-04T02:08:24.915Z,80230.14
2023-02-04T02:14:43.349Z,80188.83
2023-02-04T02:21:01.166Z,80206.97
2023-02-04T02:27:19.658Z,80211.00
2023-02-04T02:33:38.029Z,80206.97
2023-02-04T02:39:56.135Z,80209.99
2023-02-04T02:46:14.415Z,80185.81
2023-02-04T02:52:32.475Z,80192.86
2023-02-04T02:58:50.795Z,80175.73
2023-02-04T03:05:08.676Z,80177.75
2023-02-04T03:11:26.750Z,80178.76
2023-02-04T03:17:46.722Z,80183.80
2023-02-04T03:24:06.757Z,80197.90
2023-02-04T03:30:24.764Z,80222.08
2023-02-04T03:36:44.984Z,80246.27
2023-02-04T03:43:04.630Z,80219.06
2023-02-04T03:49:22.626Z,80276.49
2023-02-04T03:55:40.485Z,80270.45
2023-02-04T04:01:58.636Z,80263.39
2023-02-04T04:08:16.791Z,80245.26
2023-02-04T04:14:34.983Z,80257.34
2023-02-04T04:20:53.317Z,80267.42
2023-02-04T04:27:11.563Z,80282.53
2023-02-04T04:33:29.660Z,80327.88
2023-02-04T04:39:47.932Z,80331.91
2023-02-04T04:46:07.632Z,80353.06
2023-02-04T04:52:25.758Z,80321.83
2023-02-04T04:58:43.932Z,80279.52
2023-02-04T05:05:02.340Z,80263.39
2023-02-04T05:11:20.452Z,80265.41
2023-02-04T05:17:38.462Z,80300.67
2023-02-04T05:23:56.409Z,80254.33
2023-02-04T05:30:14.735Z,80243.24
2023-02-04T05:36:34.573Z,80228.13
2023-02-04T05:42:52.691Z,80204.95
2023-02-04T05:49:10.791Z,80181.78
2023-02-04T05:55:31.103Z,80181.78
2023-02-04T06:01:49.538Z,80172.71
2023-02-04T06:08:07.975Z,80189.84
2023-02-04T06:14:26.149Z,80187.83
2023-02-04T06:20:44.661Z,80207.98
2023-02-04T06:27:02.825Z,80225.11
2023-02-04T06:33:20.460Z,80249.28
2023-02-04T06:39:40.924Z,80260.37
2023-02-04T06:45:59.078Z,80276.49
2023-02-04T06:52:16.856Z,80270.45
2023-02-04T06:58:34.579Z,80285.56
2023-02-04T07:04:52.633Z,80287.58
2023-02-04T07:11:10.852Z,80285.56
2023-02-04T07:17:28.996Z,80279.52
2023-02-04T07:23:47.222Z,80275.48
2023-02-04T07:30:05.504Z,80250.30
2023-02-04T07:36:23.716Z,80249.28
2023-02-04T07:42:43.400Z,80234.17
2023-02-04T07:49:01.388Z,80217.05
2023-02-04T07:55:19.601Z,80207.98
2023-02-04T08:01:39.818Z,80196.89
2023-02-04T08:07:57.874Z,80201.94
2023-02-04T08:14:16.316Z,80185.81
2023-02-04T08:20:34.939Z,80179.77
2023-02-04T08:26:52.574Z,80182.79
2023-02-04T08:33:10.446Z,80143.49
2023-02-04T08:39:28.180Z,80137.45
2023-02-04T08:45:46.499Z,80104.20
2023-02-04T08:52:04.685Z,80089.09
2023-02-04T08:58:22.673Z,80071.96
2023-02-04T09:04:40.684Z,80056.84
2023-02-04T09:10:59.185Z,80009.50
2023-02-04T09:17:17.355Z,79988.34
2023-02-04T09:23:35.664Z,79902.70
2023-02-04T09:29:55.888Z,79966.17
2023-02-04T09:36:13.959Z,79955.09
2023-02-04T09:42:33.957Z,79928.89
2023-02-04T09:48:52.479Z,79712.30
2023-02-04T09:55:10.682Z,79378.86
2023-02-04T10:01:28.804Z,79171.36
2023-02-04T10:07:46.537Z,79140.14
2023-02-04T10:14:04.792Z,79084.74
2023-02-04T10:20:23.905Z,79366.78
2023-02-04T10:26:41.927Z,79316.41
2023-02-04T10:33:00.091Z,79257.98
2023-02-04T10:39:18.549Z,79362.75
2023-02-04T10:45:38.380Z,79420.16
2023-02-04T10:51:58.251Z,79130.07
2023-02-04T10:58:16.353Z,79275.11
2023-02-04T11:04:34.173Z,79255.98
2023-02-04T11:10:54.072Z,79522.91
2023-02-04T11:17:12.277Z,79530.97
2023-02-04T11:23:30.059Z,79612.56
2023-02-04T11:29:48.155Z,79623.65
2023-02-04T11:36:05.927Z,79710.28
2023-02-04T11:42:24.149Z,79716.33
2023-02-04T11:48:46.741Z,79647.83
2023-02-04T11:55:04.408Z,79607.53
2023-02-04T12:01:23.134Z,79653.87
2023-02-04T12:07:41.157Z,79726.41
2023-02-04T12:14:01.612Z,79739.50
2023-02-04T12:20:21.524Z,79810.02
2023-02-04T12:26:39.546Z,79794.91
2023-02-04T12:32:57.554Z,79810.02
2023-02-04T12:39:15.821Z,79772.74
2023-02-04T12:45:33.832Z,79771.73
2023-02-04T12:51:51.762Z,79739.50
2023-02-04T12:58:09.919Z,79752.59
2023-02-04T13:04:28.238Z,79816.06
2023-02-04T13:10:46.336Z,79867.44
2023-02-04T13:17:04.484Z,79817.07
2023-02-04T13:23:24.361Z,79755.62
2023-02-04T13:29:42.134Z,79742.52
2023-02-04T13:36:00.117Z,79758.64
2023-02-04T13:42:18.231Z,79796.92
2023-02-04T13:48:36.693Z,79811.03
2023-02-04T13:54:53.753Z,79761.66
2023-02-04T14:01:12.014Z,79812.03
2023-02-04T14:07:29.676Z,79844.27
2023-02-04T14:13:47.678Z,79818.08
2023-02-04T14:20:05.549Z,79849.31
2023-02-04T14:26:23.656Z,79870.47
2023-02-04T14:32:41.932Z,79929.91
2023-02-04T14:38:59.979Z,79915.80
2023-02-04T14:45:18.301Z,79882.55
2023-02-04T14:51:36.478Z,79937.97
2023-02-04T14:57:54.581Z,79927.89
2023-02-04T15:04:12.840Z,79950.05
2023-02-04T15:10:31.047Z,79927.89
2023-02-04T15:16:48.993Z,79926.88
2023-02-04T15:23:07.385Z,79956.09
2023-02-04T15:29:25.537Z,79936.95
2023-02-04T15:35:43.800Z,79947.03
2023-02-04T15:42:02.135Z,79945.02
2023-02-04T15:48:20.451Z,79969.20
2023-02-04T15:54:38.706Z,79960.13
2023-02-04T16:00:56.886Z,79951.06
2023-02-04T16:07:16.911Z,79977.25
2023-02-04T16:13:35.374Z,80008.48
2023-02-04T16:19:54.177Z,80070.95
2023-02-04T16:26:12.327Z,80057.86
2023-02-04T16:32:30.795Z,80052.81
2023-02-04T16:38:48.852Z,80068.94
2023-02-04T16:45:07.053Z,80064.91
2023-02-04T16:51:25.471Z,80069.95
2023-02-04T16:57:43.483Z,80078.01
2023-02-04T17:04:01.335Z,80097.15
2023-02-04T17:10:19.445Z,80115.28
2023-02-04T17:16:39.446Z,80087.07
2023-02-04T17:22:57.748Z,80159.61
2023-02-04T17:29:15.587Z,80161.63
2023-02-04T17:35:33.963Z,80134.42
2023-02-04T17:41:53.683Z,80132.41
2023-02-04T17:48:11.884Z,80141.48
2023-02-04T17:54:29.824Z,80159.61
2023-02-04T18:00:49.191Z,80170.70
2023-02-04T18:07:07.397Z,80217.05
2023-02-04T18:13:25.662Z,80226.11
2023-02-04T18:19:47.338Z,80237.20
2023-02-04T18:26:05.629Z,80224.09
2023-02-04T18:32:23.679Z,80235.19
2023-02-04T18:38:47.480Z,80264.40
2023-02-04T18:45:05.871Z,80279.52
2023-02-04T18:51:24.109Z,80298.66
2023-02-04T18:54:36.208Z,80295.64
2023-02-04T19:00:47.006Z,80310.75
2023-02-04T19:07:04.946Z,80302.69
2023-02-04T19:13:22.911Z,80310.75
2023-02-04T19:19:49.518Z,80315.78
2023-02-04T19:26:10.872Z,80327.88
2023-02-04T19:32:28.750Z,80317.80
2023-02-04T19:38:48.956Z,80305.71
2023-02-04T19:45:08.569Z,80308.73
2023-02-04T19:51:26.749Z,80352.06
2023-02-04T19:57:46.360Z,80267.42
2023-02-04T20:00:52.477Z,80289.59
2023-02-04T20:06:56.208Z,80298.66
2023-02-04T20:13:15.937Z,80312.77
2023-02-04T20:19:36.194Z,80302.69
2023-02-04T20:26:09.308Z,80325.86
2023-02-04T20:32:27.129Z,80371.20
2023-02-04T20:38:47.015Z,80372.21
2023-02-04T20:45:07.170Z,80375.23
2023-02-04T20:51:25.294Z,80394.38
2023-02-04T20:57:45.554Z,80398.41
2023-02-04T21:04:04.001Z,80399.42
2023-02-04T21:10:22.155Z,80379.27
2023-02-04T21:16:40.493Z,80388.33
2023-02-04T21:22:58.215Z,80410.50
2023-02-04T21:29:18.064Z,80420.58
2023-02-04T21:35:43.166Z,80376.24
2023-02-04T21:42:01.116Z,80327.88
2023-02-04T21:48:19.361Z,80313.77
2023-02-04T21:54:37.523Z,80333.92
2023-02-04T22:00:56.216Z,80374.23
2023-02-04T22:07:14.000Z,80385.31
2023-02-04T22:13:31.634Z,80402.44
2023-02-04T22:19:49.370Z,80362.14
2023-02-04T22:26:07.782Z,80354.08
2023-02-04T22:32:25.923Z,80388.33
2023-02-04T22:38:44.141Z,80321.83
2023-02-04T22:45:02.371Z,80380.27
2023-02-04T22:51:20.477Z,80359.11
2023-02-04T22:57:38.768Z,80313.77
2023-02-04T23:03:56.780Z,80330.91
2023-02-04T23:10:14.952Z,80328.89
2023-02-04T23:16:33.188Z,80339.97
2023-02-04T23:22:51.013Z,80290.59
2023-02-04T23:29:11.759Z,80313.77
2023-02-04T23:35:30.053Z,80313.77
2023-02-04T23:41:48.138Z,80319.81
2023-02-04T23:48:06.367Z,80311.76
2023-02-04T23:54:26.335Z,80298.66
